^^
Your Local Weather - Clay, NY Station Historical Data
Daily Summary for February 09, 2018 Units:  English    Metric   Both
« Previous Day
Next Day »
Daily Weekly Monthly Yearly Custom
  High: Low: Average:
Temperature: 24.3 °F 10.5 °F 19.2 °F
Dew Point: 22.1 °F 5.3 °F 14.7 °F
Humidity: 91% 68% 82%
Wind Speed: 5.0mph 0.0mph 2.1mph
Wind Gust: 9.0mph - -
Wind- - SSE
Pressure: 30.46 in 30.18 in -
Precipitation: 0.00 in    
Historical Graphs
 
 
Tabular Data for February 09, 2018
Time Temperature Dew Point Pressure Wind Wind Speed Wind Gust Humidity Rainfall Rate (Hourly) solar
00:02 15.4 °F 9.5 °F 30.41 in WNW 2.0 mph 2.0 mph 77% 0.00 in 0 W/m2
00:08 15.2 °F 9.3 °F 30.41 in WSW 1.0 mph 4.0 mph 77% 0.00 in 0 W/m2
00:16 15.2 °F 9.3 °F 30.41 in SW 2.0 mph 4.0 mph 77% 0.00 in 0 W/m2
00:22 15.3 °F 9.7 °F 30.41 in West 3.0 mph 7.0 mph 78% 0.00 in 0 W/m2
00:28 15.4 °F 9.8 °F 30.41 in SW 3.0 mph 7.0 mph 78% 0.00 in 0 W/m2
00:34 15.5 °F 9.9 °F 30.41 in WSW 3.0 mph 3.0 mph 78% 0.00 in 0 W/m2
00:40 15.6 °F 10.0 °F 30.40 in WSW 3.0 mph 5.0 mph 78% 0.00 in 0 W/m2
00:46 15.7 °F 10.1 °F 30.40 in West 3.0 mph 5.0 mph 78% 0.00 in 0 W/m2
00:52 15.6 °F 10.0 °F 30.41 in West 1.0 mph 2.0 mph 78% 0.00 in 0 W/m2
00:58 15.3 °F 9.7 °F 30.40 in WSW 1.0 mph 5.0 mph 78% 0.00 in 0 W/m2
01:04 15.1 °F 9.5 °F 30.40 in WSW 1.0 mph 3.0 mph 78% 0.00 in 0 W/m2
01:10 15.0 °F 9.7 °F 30.41 in WSW 1.0 mph 1.0 mph 79% 0.00 in 0 W/m2
01:16 14.7 °F 9.4 °F 30.41 in WSW 1.0 mph 1.0 mph 79% 0.00 in 0 W/m2
01:22 14.6 °F 9.3 °F 30.41 in WSW 1.0 mph 1.0 mph 79% 0.00 in 0 W/m2
01:28 14.5 °F 9.5 °F 30.41 in West 2.0 mph 3.0 mph 80% 0.00 in 0 W/m2
01:34 14.7 °F 9.4 °F 30.41 in West 2.0 mph 2.0 mph 79% 0.00 in 0 W/m2
01:40 14.7 °F 9.4 °F 30.41 in West 2.0 mph 2.0 mph 79% 0.00 in 0 W/m2
01:46 14.8 °F 9.5 °F 30.42 in WSW 2.0 mph 3.0 mph 79% 0.00 in 0 W/m2
01:52 14.9 °F 9.6 °F 30.42 in SW 2.0 mph 8.0 mph 79% 0.00 in 0 W/m2
01:58 14.9 °F 9.6 °F 30.42 in SW 2.0 mph 8.0 mph 79% 0.00 in 0 W/m2
02:04 14.8 °F 9.5 °F 30.43 in WSW 1.0 mph 2.0 mph 79% 0.00 in 0 W/m2
02:10 14.6 °F 9.3 °F 30.43 in WSW 1.0 mph 1.0 mph 79% 0.00 in 0 W/m2
02:16 14.5 °F 9.2 °F 30.43 in WSW 1.0 mph 2.0 mph 79% 0.00 in 0 W/m2
02:22 14.3 °F 9.0 °F 30.43 in WSW 1.0 mph 2.0 mph 79% 0.00 in 0 W/m2
02:28 14.2 °F 8.9 °F 30.43 in SW 2.0 mph 3.0 mph 79% 0.00 in 0 W/m2
02:34 14.2 °F 8.9 °F 30.43 in West 2.0 mph 3.0 mph 79% 0.00 in 0 W/m2
02:40 14.1 °F 8.8 °F 30.43 in West 2.0 mph 2.0 mph 79% 0.00 in 0 W/m2
02:46 14.0 °F 8.7 °F 30.43 in West 1.0 mph 3.0 mph 79% 0.00 in 0 W/m2
02:52 14.1 °F 9.1 °F 30.43 in WSW 2.0 mph 2.0 mph 80% 0.00 in 0 W/m2
02:58 14.2 °F 9.2 °F 30.43 in West 2.0 mph 2.0 mph 80% 0.00 in 0 W/m2
03:04 14.3 °F 9.0 °F 30.43 in SW 2.0 mph 3.0 mph 79% 0.00 in 0 W/m2
03:10 14.3 °F 9.0 °F 30.43 in SW 2.0 mph 4.0 mph 79% 0.00 in 0 W/m2
03:16 14.3 °F 9.0 °F 30.43 in West 2.0 mph 4.0 mph 79% 0.00 in 0 W/m2
03:22 14.2 °F 8.9 °F 30.43 in SSW 2.0 mph 2.0 mph 79% 0.00 in 0 W/m2
03:28 14.1 °F 8.8 °F 30.43 in SSW 1.0 mph 3.0 mph 79% 0.00 in 0 W/m2
03:34 14.0 °F 8.7 °F 30.43 in SSW 1.0 mph 2.0 mph 79% 0.00 in 0 W/m2
03:40 13.8 °F 8.5 °F 30.43 in SW 1.0 mph 1.0 mph 79% 0.00 in 0 W/m2
03:46 13.6 °F 8.3 °F 30.43 in Calm   1.0 mph 79% 0.00 in 0 W/m2
03:52 13.2 °F 7.9 °F 30.43 in Calm   1.0 mph 79% 0.00 in 0 W/m2
03:58 12.9 °F 7.6 °F 30.43 in Calm   2.0 mph 79% 0.00 in 0 W/m2
04:04 12.7 °F 7.7 °F 30.43 in Calm     80% 0.00 in 0 W/m2
04:10 12.7 °F 7.7 °F 30.44 in Calm     80% 0.00 in 0 W/m2
04:16 12.8 °F 7.8 °F 30.43 in SSW 1.0 mph 2.0 mph 80% 0.00 in 0 W/m2
04:22 12.9 °F 7.9 °F 30.43 in SSW 1.0 mph 1.0 mph 80% 0.00 in 0 W/m2
04:28 13.1 °F 8.1 °F 30.43 in SW 1.0 mph 3.0 mph 80% 0.00 in 0 W/m2
04:34 13.3 °F 8.3 °F 30.43 in SSW 1.0 mph 1.0 mph 80% 0.00 in 0 W/m2
04:40 13.4 °F 8.4 °F 30.43 in Calm     80% 0.00 in 0 W/m2
04:46 13.4 °F 8.4 °F 30.43 in Calm     80% 0.00 in 0 W/m2
04:52 13.3 °F 8.0 °F 30.43 in Calm     79% 0.00 in 0 W/m2
04:58 12.9 °F 7.6 °F 30.43 in Calm     79% 0.00 in 0 W/m2
05:04 12.0 °F 6.5 °F 30.43 in Calm     78% 0.00 in 0 W/m2
05:10 11.2 °F 6.0 °F 30.43 in Calm     79% 0.00 in 0 W/m2
05:16 10.5 °F 5.3 °F 30.43 in Calm     79% 0.00 in 0 W/m2
05:22 10.5 °F 5.5 °F 30.43 in Calm     80% 0.00 in 0 W/m2
05:28 10.9 °F 6.2 °F 30.43 in Calm     81% 0.00 in 0 W/m2
05:34 11.8 °F 7.4 °F 30.44 in Calm     82% 0.00 in 0 W/m2
05:40 12.3 °F 7.9 °F 30.44 in Calm     82% 0.00 in 0 W/m2
05:46 12.7 °F 8.2 °F 30.44 in Calm   1.0 mph 82% 0.00 in 0 W/m2
05:52 13.1 °F 8.6 °F 30.44 in Calm     82% 0.00 in 0 W/m2
05:58 13.6 °F 9.1 °F 30.44 in SW 1.0 mph 6.0 mph 82% 0.00 in 0 W/m2
06:04 13.9 °F 9.4 °F 30.44 in SW 1.0 mph 2.0 mph 82% 0.00 in 0 W/m2
06:10 14.0 °F 9.2 °F 30.45 in SW 1.0 mph 1.0 mph 81% 0.00 in 0 W/m2
06:16 14.1 °F 9.3 °F 30.45 in SW 1.0 mph 2.0 mph 81% 0.00 in 0 W/m2
06:22 14.3 °F 9.5 °F 30.44 in SW 1.0 mph 1.0 mph 81% 0.00 in 0 W/m2
06:28 14.4 °F 9.6 °F 30.45 in SW 1.0 mph 3.0 mph 81% 0.00 in 0 W/m2
06:34 14.5 °F 9.5 °F 30.45 in SW 1.0 mph 1.0 mph 80% 0.00 in 0 W/m2
06:40 14.8 °F 10.0 °F 30.44 in SSW 1.0 mph 1.0 mph 81% 0.00 in 0 W/m2
06:46 15.1 °F 10.0 °F 30.44 in SSW 2.0 mph 2.0 mph 80% 0.00 in 0 W/m2
06:52 15.4 °F 10.3 °F 30.44 in SW 2.0 mph 2.0 mph 80% 0.00 in 0 W/m2
06:58 15.7 °F 10.6 °F 30.44 in South 2.0 mph 5.0 mph 80% 0.00 in 0 W/m2
07:04 15.9 °F 10.5 °F 30.45 in SW 3.0 mph 5.0 mph 79% 0.00 in 5 W/m2
07:10 16.0 °F 10.6 °F 30.44 in SW 2.0 mph 2.0 mph 79% 0.00 in 7 W/m2
07:16 16.0 °F 10.6 °F 30.44 in SW 2.0 mph 4.0 mph 79% 0.00 in 9 W/m2
07:22 16.0 °F 10.3 °F 30.44 in South 2.0 mph 4.0 mph 78% 0.00 in 14 W/m2
07:28 16.1 °F 10.4 °F 30.45 in SSW 2.0 mph 4.0 mph 78% 0.00 in 18 W/m2
07:34 16.1 °F 10.4 °F 30.45 in SSW 2.0 mph 3.0 mph 78% 0.00 in 26 W/m2
07:40 16.3 °F 10.6 °F 30.45 in SW 3.0 mph 3.0 mph 78% 0.00 in 42 W/m2
07:46 16.5 °F 10.5 °F 30.45 in SSW 2.0 mph 3.0 mph 77% 0.00 in 51 W/m2
07:52 16.6 °F 10.6 °F 30.46 in SW 1.0 mph 2.0 mph 77% 0.00 in 47 W/m2
07:58 16.8 °F 10.8 °F 30.46 in SSW 2.0 mph 2.0 mph 77% 0.00 in 67 W/m2
08:04 17.0 °F 11.0 °F 30.46 in SW 2.0 mph 3.0 mph 77% 0.00 in 83 W/m2
08:10 17.3 °F 11.0 °F 30.46 in WSW 2.0 mph 2.0 mph 76% 0.00 in 84 W/m2
08:16 17.5 °F 11.2 °F 30.46 in SSW 1.0 mph 3.0 mph 76% 0.00 in 79 W/m2
08:22 17.7 °F 11.4 °F 30.46 in SW 2.0 mph 4.0 mph 76% 0.00 in 84 W/m2
08:28 17.9 °F 11.6 °F 30.46 in SW 2.0 mph 4.0 mph 76% 0.00 in 83 W/m2
08:34 18.1 °F 11.5 °F 30.46 in SSW 2.0 mph 3.0 mph 75% 0.00 in 88 W/m2
08:40 18.2 °F 11.6 °F 30.46 in SSW 2.0 mph 2.0 mph 75% 0.00 in 98 W/m2
08:46 18.4 °F 11.8 °F 30.46 in SSW 2.0 mph 2.0 mph 75% 0.00 in 118 W/m2
08:52 18.7 °F 12.1 °F 30.45 in SSW 2.0 mph 3.0 mph 75% 0.00 in 149 W/m2
08:58 19.0 °F 12.1 °F 30.45 in SSW 1.0 mph 3.0 mph 74% 0.00 in 171 W/m2
09:04 19.3 °F 12.4 °F 30.45 in SSW 1.0 mph 1.0 mph 74% 0.00 in 167 W/m2
09:10 19.4 °F 12.2 °F 30.45 in South 1.0 mph 4.0 mph 73% 0.00 in 160 W/m2
09:16 19.5 °F 12.3 °F 30.45 in SSW 2.0 mph 4.0 mph 73% 0.00 in 171 W/m2
09:22 19.7 °F 12.4 °F 30.45 in South 1.0 mph 3.0 mph 73% 0.00 in 174 W/m2
09:28 20.0 °F 12.4 °F 30.45 in WSW 1.0 mph 3.0 mph 72% 0.00 in 174 W/m2
09:34 20.2 °F 12.6 °F 30.45 in WSW 1.0 mph 2.0 mph 72% 0.00 in 179 W/m2
09:40 20.2 °F 12.6 °F 30.45 in SW 1.0 mph 1.0 mph 72% 0.00 in 181 W/m2
09:46 20.4 °F 12.5 °F 30.46 in SSW 2.0 mph 5.0 mph 71% 0.00 in 181 W/m2
09:52 20.4 °F 12.5 °F 30.46 in SW 3.0 mph 3.0 mph 71% 0.00 in 183 W/m2
09:58 20.5 °F 12.3 °F 30.46 in SW 3.0 mph 6.0 mph 70% 0.00 in 186 W/m2
10:04 20.4 °F 12.2 °F 30.46 in South 3.0 mph 3.0 mph 70% 0.00 in 192 W/m2
10:10 20.6 °F 12.0 °F 30.46 in SW 3.0 mph 4.0 mph 69% 0.00 in 185 W/m2
10:16 20.6 °F 12.0 °F 30.45 in SSE 3.0 mph 5.0 mph 69% 0.00 in 183 W/m2
10:22 20.5 °F 11.9 °F 30.45 in South 3.0 mph 7.0 mph 69% 0.00 in 181 W/m2
10:28 20.5 °F 11.6 °F 30.44 in South 4.0 mph 9.0 mph 68% 0.00 in 186 W/m2
10:34 20.7 °F 12.1 °F 30.45 in SE 4.0 mph 6.0 mph 69% 0.00 in 199 W/m2
10:40 20.9 °F 12.0 °F 30.45 in South 3.0 mph 3.0 mph 68% 0.00 in 193 W/m2
10:46 21.0 °F 12.1 °F 30.45 in SW 3.0 mph 5.0 mph 68% 0.00 in 197 W/m2
10:52 21.2 °F 12.3 °F 30.45 in SSW 4.0 mph 4.0 mph 68% 0.00 in 193 W/m2
10:58 21.3 °F 12.7 °F 30.46 in SSW 4.0 mph 7.0 mph 69% 0.00 in 172 W/m2
11:04 21.2 °F 12.6 °F 30.46 in South 5.0 mph 6.0 mph 69% 0.00 in 171 W/m2
11:10 21.4 °F 12.8 °F 30.45 in SW 3.0 mph 3.0 mph 69% 0.00 in 171 W/m2
11:16 21.4 °F 12.8 °F 30.45 in South 3.0 mph 8.0 mph 69% 0.00 in 169 W/m2
11:22 21.2 °F 12.9 °F 30.44 in SSE 4.0 mph 6.0 mph 70% 0.00 in 178 W/m2
11:28 21.1 °F 13.2 °F 30.44 in South 5.0 mph 6.0 mph 71% 0.00 in 179 W/m2
11:34 20.9 °F 13.6 °F 30.44 in South 5.0 mph 5.0 mph 73% 0.00 in 179 W/m2
11:40 20.8 °F 13.8 °F 30.44 in SSW 5.0 mph 8.0 mph 74% 0.00 in 178 W/m2
11:46 20.7 °F 14.3 °F 30.43 in South 4.0 mph 8.0 mph 76% 0.00 in 190 W/m2
11:52 20.8 °F 14.4 °F 30.43 in SSW 4.0 mph 4.0 mph 76% 0.00 in 211 W/m2
11:58 20.9 °F 14.8 °F 30.42 in South 4.0 mph 6.0 mph 77% 0.00 in 218 W/m2
12:04 21.0 °F 15.2 °F 30.42 in SW 4.0 mph 4.0 mph 78% 0.00 in 213 W/m2
12:10 21.3 °F 15.5 °F 30.41 in South 2.0 mph 2.0 mph 78% 0.00 in 206 W/m2
12:16 21.4 °F 15.6 °F 30.41 in SW 2.0 mph 4.0 mph 78% 0.00 in 206 W/m2
12:22 21.4 °F 15.9 °F 30.41 in South 2.0 mph 3.0 mph 79% 0.00 in 213 W/m2
12:28 21.5 °F 16.0 °F 30.41 in SSE 2.0 mph 5.0 mph 79% 0.00 in 211 W/m2
12:34 21.3 °F 15.8 °F 30.40 in SSE 4.0 mph 5.0 mph 79% 0.00 in 211 W/m2
12:40 21.3 °F 16.1 °F 30.40 in SSE 4.0 mph 4.0 mph 80% 0.00 in 200 W/m2
12:46 21.4 °F 16.2 °F 30.40 in SSW 4.0 mph 4.0 mph 80% 0.00 in 188 W/m2
12:52 21.6 °F 16.4 °F 30.40 in SW 3.0 mph 5.0 mph 80% 0.00 in 193 W/m2
12:58 21.8 °F 16.6 °F 30.40 in ESE 3.0 mph 5.0 mph 80% 0.00 in 186 W/m2
13:04 21.8 °F 16.6 °F 30.40 in SSW 4.0 mph 4.0 mph 80% 0.00 in 185 W/m2
13:10 21.8 °F 16.6 °F 30.40 in South 4.0 mph 4.0 mph 80% 0.00 in 188 W/m2
13:16 21.5 °F 16.9 °F 30.39 in SE 4.0 mph 6.0 mph 82% 0.00 in 186 W/m2
13:22 21.4 °F 16.8 °F 30.38 in SE 3.0 mph 5.0 mph 82% 0.00 in 158 W/m2
13:28 21.4 °F 17.0 °F 30.39 in SSE 3.0 mph 5.0 mph 83% 0.00 in 146 W/m2
13:34 21.4 °F 17.3 °F 30.38 in South 3.0 mph 3.0 mph 84% 0.00 in 148 W/m2
13:40 21.4 °F 17.3 °F 30.38 in South 3.0 mph 3.0 mph 84% 0.00 in 155 W/m2
13:46 21.4 °F 17.6 °F 30.38 in SSE 3.0 mph 4.0 mph 85% 0.00 in 156 W/m2
13:52 21.7 °F 17.9 °F 30.37 in SSE 2.0 mph 2.0 mph 85% 0.00 in 148 W/m2
13:58 21.8 °F 18.3 °F 30.37 in South 2.0 mph 3.0 mph 86% 0.00 in 148 W/m2
14:04 22.0 °F 18.5 °F 30.36 in SSE 2.0 mph 3.0 mph 86% 0.00 in 155 W/m2
14:10 22.0 °F 18.5 °F 30.36 in SE 1.0 mph 1.0 mph 86% 0.00 in 160 W/m2
14:16 22.2 °F 18.7 °F 30.36 in ESE 2.0 mph 4.0 mph 86% 0.00 in 153 W/m2
14:22 22.3 °F 18.7 °F 30.35 in SE 2.0 mph 2.0 mph 86% 0.00 in 144 W/m2
14:28 22.3 °F 18.7 °F 30.35 in SE 3.0 mph 5.0 mph 86% 0.00 in 128 W/m2
14:34 22.2 °F 18.7 °F 30.35 in SE 4.0 mph 5.0 mph 86% 0.00 in 128 W/m2
14:40 22.4 °F 18.8 °F 30.34 in East 3.0 mph 3.0 mph 86% 0.00 in 130 W/m2
14:52 22.4 °F 18.8 °F 30.33 in ENE 3.0 mph 3.0 mph 86% 0.00 in 121 W/m2
14:58 22.6 °F 19.0 °F 30.33 in SE 3.0 mph 3.0 mph 86% 0.00 in 121 W/m2
15:04 22.5 °F 18.9 °F 30.33 in East 2.0 mph 3.0 mph 86% 0.00 in 116 W/m2
15:10 22.5 °F 19.2 °F 30.33 in East 2.0 mph 2.0 mph 87% 0.00 in 111 W/m2
15:16 22.6 °F 19.3 °F 30.33 in East 2.0 mph 2.0 mph 87% 0.00 in 104 W/m2
15:22 22.6 °F 19.3 °F 30.32 in ESE 2.0 mph 3.0 mph 87% 0.00 in 102 W/m2
15:28 22.6 °F 19.3 °F 30.32 in ENE 2.0 mph 3.0 mph 87% 0.00 in 95 W/m2
15:34 22.7 °F 19.4 °F 30.32 in SSE 2.0 mph 4.0 mph 87% 0.00 in 90 W/m2
15:40 22.5 °F 19.2 °F 30.32 in SE 4.0 mph 4.0 mph 87% 0.00 in 88 W/m2
15:48 22.7 °F 19.4 °F 30.32 in SE 2.0 mph 6.0 mph 87% 0.00 in 79 W/m2
15:54 22.7 °F 19.4 °F 30.32 in SE 2.0 mph 3.0 mph 87% 0.00 in 72 W/m2
16:00 22.8 °F 19.5 °F 30.31 in SE 2.0 mph 3.0 mph 87% 0.00 in 70 W/m2
16:06 22.8 °F 19.5 °F 30.31 in SE 2.0 mph 3.0 mph 87% 0.00 in 63 W/m2
16:12 22.8 °F 19.8 °F 30.31 in ESE 2.0 mph 2.0 mph 88% 0.00 in 51 W/m2
16:18 22.8 °F 19.8 °F 30.30 in ENE 2.0 mph 3.0 mph 88% 0.00 in 47 W/m2
16:24 22.6 °F 19.3 °F 30.30 in NE 3.0 mph 5.0 mph 87% 0.00 in 53 W/m2
16:30 22.5 °F 19.5 °F 30.30 in ENE 3.0 mph 3.0 mph 88% 0.00 in 49 W/m2
16:36 22.4 °F 19.4 °F 30.29 in ENE 3.0 mph 4.0 mph 88% 0.00 in 46 W/m2
16:42 22.3 °F 19.3 °F 30.29 in ENE 3.0 mph 4.0 mph 88% 0.00 in 40 W/m2
16:50 22.1 °F 19.1 °F 30.29 in East 3.0 mph 3.0 mph 88% 0.00 in 28 W/m2
16:56 22.1 °F 19.1 °F 30.28 in ESE 2.0 mph 4.0 mph 88% 0.00 in 25 W/m2
17:02 22.1 °F 19.1 °F 30.27 in ENE 2.0 mph 3.0 mph 88% 0.00 in 19 W/m2
17:08 22.1 °F 19.4 °F 30.27 in ENE 2.0 mph 7.0 mph 89% 0.00 in 14 W/m2
17:14 22.1 °F 19.1 °F 30.27 in NE 3.0 mph 4.0 mph 88% 0.00 in 9 W/m2
17:20 22.1 °F 19.1 °F 30.27 in ENE 2.0 mph 2.0 mph 88% 0.00 in 5 W/m2
17:26 22.1 °F 19.4 °F 30.27 in NE 2.0 mph 3.0 mph 89% 0.00 in 0 W/m2
17:32 22.2 °F 19.5 °F 30.27 in ENE 3.0 mph 4.0 mph 89% 0.00 in 0 W/m2
17:38 22.2 °F 19.5 °F 30.26 in ENE 3.0 mph 4.0 mph 89% 0.00 in 0 W/m2
17:44 22.2 °F 19.5 °F 30.26 in East 3.0 mph 4.0 mph 89% 0.00 in 0 W/m2
17:50 22.2 °F 19.5 °F 30.26 in ENE 3.0 mph 3.0 mph 89% 0.00 in 0 W/m2
17:56 22.2 °F 19.5 °F 30.25 in ENE 3.0 mph 3.0 mph 89% 0.00 in 0 W/m2
18:02 22.2 °F 19.5 °F 30.26 in NE 3.0 mph 3.0 mph 89% 0.00 in 0 W/m2
18:08 22.3 °F 19.6 °F 30.25 in East 3.0 mph 3.0 mph 89% 0.00 in 0 W/m2
18:14 22.3 °F 19.6 °F 30.25 in East 3.0 mph 3.0 mph 89% 0.00 in 0 W/m2
18:20 22.4 °F 19.9 °F 30.25 in ENE 3.0 mph 5.0 mph 90% 0.00 in 0 W/m2
18:26 22.4 °F 19.9 °F 30.25 in ESE 4.0 mph 5.0 mph 90% 0.00 in 0 W/m2
18:32 22.3 °F 19.8 °F 30.25 in ENE 3.0 mph 4.0 mph 90% 0.00 in 0 W/m2
18:38 22.3 °F 19.8 °F 30.24 in ENE 3.0 mph 4.0 mph 90% 0.00 in 0 W/m2
18:44 22.2 °F 19.7 °F 30.25 in SE 3.0 mph 8.0 mph 90% 0.00 in 0 W/m2
18:50 22.2 °F 19.7 °F 30.25 in ENE 3.0 mph 3.0 mph 90% 0.00 in 0 W/m2
18:56 22.1 °F 19.6 °F 30.25 in ENE 3.0 mph 7.0 mph 90% 0.00 in 0 W/m2
19:02 22.0 °F 19.5 °F 30.25 in ENE 3.0 mph 4.0 mph 90% 0.00 in 0 W/m2
19:08 22.0 °F 19.5 °F 30.25 in SE 2.0 mph 4.0 mph 90% 0.00 in 0 W/m2
19:14 21.9 °F 19.4 °F 30.25 in ENE 1.0 mph 3.0 mph 90% 0.00 in 0 W/m2
19:20 21.8 °F 19.3 °F 30.25 in East 1.0 mph 1.0 mph 90% 0.00 in 0 W/m2
19:26 21.8 °F 19.3 °F 30.25 in East 1.0 mph 2.0 mph 90% 0.00 in 0 W/m2
19:32 21.8 °F 19.3 °F 30.25 in ENE 1.0 mph 3.0 mph 90% 0.00 in 0 W/m2
19:38 21.8 °F 19.3 °F 30.24 in ENE 2.0 mph 3.0 mph 90% 0.00 in 0 W/m2
19:44 21.8 °F 19.3 °F 30.24 in ESE 2.0 mph 3.0 mph 90% 0.00 in 0 W/m2
19:50 21.8 °F 19.3 °F 30.24 in East 2.0 mph 2.0 mph 90% 0.00 in 0 W/m2
19:56 21.8 °F 19.3 °F 30.24 in NE 2.0 mph 5.0 mph 90% 0.00 in 0 W/m2
20:02 21.8 °F 19.3 °F 30.24 in ENE 2.0 mph 3.0 mph 90% 0.00 in 0 W/m2
20:08 21.8 °F 19.3 °F 30.24 in ENE 2.0 mph 3.0 mph 90% 0.00 in 0 W/m2
20:14 21.8 °F 19.3 °F 30.23 in ENE 1.0 mph 2.0 mph 90% 0.00 in 0 W/m2
20:20 21.8 °F 19.6 °F 30.23 in ENE 2.0 mph 2.0 mph 91% 0.00 in 0 W/m2
20:26 21.9 °F 19.4 °F 30.23 in ENE 2.0 mph 4.0 mph 90% 0.00 in 0 W/m2
20:32 21.9 °F 19.7 °F 30.23 in ENE 2.0 mph 2.0 mph 91% 0.00 in 0 W/m2
20:38 21.9 °F 19.7 °F 30.22 in East 2.0 mph 2.0 mph 91% 0.00 in 0 W/m2
20:44 21.9 °F 19.7 °F 30.22 in SE 1.0 mph 3.0 mph 91% 0.00 in 0 W/m2
20:50 22.0 °F 19.8 °F 30.22 in ENE 2.0 mph 2.0 mph 91% 0.00 in 0 W/m2
20:56 22.0 °F 19.8 °F 30.22 in East 3.0 mph 3.0 mph 91% 0.00 in 0 W/m2
21:02 22.1 °F 19.9 °F 30.21 in ENE 3.0 mph 3.0 mph 91% 0.00 in 0 W/m2
21:08 22.2 °F 20.0 °F 30.21 in ENE 3.0 mph 4.0 mph 91% 0.00 in 0 W/m2
21:14 22.2 °F 20.0 °F 30.21 in NE 3.0 mph 5.0 mph 91% 0.00 in 0 W/m2
21:20 22.3 °F 20.1 °F 30.21 in ENE 3.0 mph 3.0 mph 91% 0.00 in 0 W/m2
21:26 22.4 °F 20.2 °F 30.21 in ENE 3.0 mph 3.0 mph 91% 0.00 in 0 W/m2
21:32 22.4 °F 20.2 °F 30.21 in East 3.0 mph 3.0 mph 91% 0.00 in 0 W/m2
21:38 22.5 °F 20.3 °F 30.22 in ENE 2.0 mph 4.0 mph 91% 0.00 in 0 W/m2
21:44 22.6 °F 20.4 °F 30.21 in ENE 2.0 mph 4.0 mph 91% 0.00 in 0 W/m2
21:50 22.6 °F 20.4 °F 30.21 in ENE 2.0 mph 7.0 mph 91% 0.00 in 0 W/m2
21:56 22.7 °F 20.5 °F 30.20 in ENE 3.0 mph 7.0 mph 91% 0.00 in 0 W/m2
22:02 22.7 °F 20.5 °F 30.20 in NE 3.0 mph 3.0 mph 91% 0.00 in 0 W/m2
22:08 22.7 °F 20.5 °F 30.20 in East 2.0 mph 8.0 mph 91% 0.00 in 0 W/m2
22:14 22.8 °F 20.6 °F 30.20 in ENE 3.0 mph 3.0 mph 91% 0.00 in 0 W/m2
22:20 22.9 °F 20.7 °F 30.20 in ENE 3.0 mph 3.0 mph 91% 0.00 in 0 W/m2
22:26 23.0 °F 20.8 °F 30.20 in ENE 3.0 mph 3.0 mph 91% 0.00 in 0 W/m2
22:32 23.1 °F 20.9 °F 30.20 in ENE 2.0 mph 2.0 mph 91% 0.00 in 0 W/m2
22:38 23.2 °F 21.0 °F 30.20 in ENE 2.0 mph 2.0 mph 91% 0.00 in 0 W/m2
22:44 23.3 °F 21.1 °F 30.19 in ENE 2.0 mph 3.0 mph 91% 0.00 in 0 W/m2
22:50 23.3 °F 21.1 °F 30.19 in ENE 2.0 mph 2.0 mph 91% 0.00 in 0 W/m2
22:56 23.4 °F 21.2 °F 30.19 in East 2.0 mph 4.0 mph 91% 0.00 in 0 W/m2
23:02 23.5 °F 21.3 °F 30.19 in East 1.0 mph 1.0 mph 91% 0.00 in 0 W/m2
23:08 23.6 °F 21.4 °F 30.19 in East 1.0 mph 1.0 mph 91% 0.00 in 0 W/m2
23:14 23.7 °F 21.5 °F 30.19 in East 1.0 mph 1.0 mph 91% 0.00 in 0 W/m2
23:20 23.8 °F 21.6 °F 30.19 in East 1.0 mph 2.0 mph 91% 0.00 in 0 W/m2
23:26 23.9 °F 21.7 °F 30.19 in East 1.0 mph 2.0 mph 91% 0.00 in 0 W/m2
23:32 24.0 °F 21.8 °F 30.18 in East 1.0 mph 2.0 mph 91% 0.00 in 0 W/m2
23:38 24.1 °F 21.9 °F 30.18 in ENE 2.0 mph 3.0 mph 91% 0.00 in 0 W/m2
23:44 24.2 °F 22.0 °F 30.18 in ENE 2.0 mph 3.0 mph 91% 0.00 in 0 W/m2
23:50 24.3 °F 22.1 °F 30.18 in ENE 1.0 mph 2.0 mph 91% 0.00 in 0 W/m2
23:56 24.3 °F 22.1 °F 30.18 in ENE 1.0 mph 2.0 mph 91% 0.00 in 0 W/m2
Country Meadow, Clay, NY, USA
Compliments of Weather Underground - 2 mb